createdAt,value
2023-01-05T00:01:34.236Z,94638.59
2023-01-05T00:04:01.069Z,94654.03
2023-01-05T00:06:27.866Z,94649.94
2023-01-05T00:08:54.607Z,94648.69
2023-01-05T00:11:42.457Z,94639.56
2023-01-05T00:14:33.907Z,94630.44
2023-01-05T00:17:19.133Z,94620.66
2023-01-05T00:20:04.446Z,94621.94
2023-01-05T00:22:31.940Z,94635.47
2023-01-05T00:25:12.102Z,94634.50
2023-01-05T00:27:41.672Z,94632.94
2023-01-05T00:30:10.897Z,94638.75
2023-01-05T00:32:37.796Z,94637.97
2023-01-05T00:35:05.163Z,94633.84
2023-01-05T00:37:34.604Z,94631.47
2023-01-05T00:40:01.431Z,94624.38
2023-01-05T00:42:28.142Z,94617.75
2023-01-05T00:44:54.889Z,94609.59
2023-01-05T00:47:21.647Z,94614.94
2023-01-05T00:49:48.650Z,94607.22
2023-01-05T00:52:15.312Z,94606.44
2023-01-05T00:54:42.747Z,94599.03
2023-01-05T00:57:13.766Z,94598.91
2023-01-05T00:59:40.718Z,94601.69
2023-01-05T01:02:07.660Z,94607.84
2023-01-05T01:04:35.224Z,94592.50
2023-01-05T01:07:04.361Z,94599.16
2023-01-05T01:09:31.616Z,94603.09
2023-01-05T01:11:58.477Z,94605.31
2023-01-05T01:14:25.747Z,94610.34
2023-01-05T01:16:52.632Z,94610.66
2023-01-05T01:19:22.187Z,94601.94
2023-01-05T01:21:49.496Z,94598.94
2023-01-05T01:24:19.887Z,94594.91
2023-01-05T01:26:46.843Z,94602.63
2023-01-05T01:29:14.078Z,94599.16
2023-01-05T01:31:40.735Z,94595.50
2023-01-05T01:34:07.647Z,94599.75
2023-01-05T01:36:34.752Z,94596.47
2023-01-05T01:39:01.635Z,94590.66
2023-01-05T01:41:32.785Z,94597.59
2023-01-05T01:44:00.801Z,94607.97
2023-01-05T01:46:29.367Z,94605.31
2023-01-05T01:49:02.595Z,94595.31
2023-01-05T01:51:44.781Z,94595.00
2023-01-05T01:54:15.139Z,94586.03
2023-01-05T01:56:47.723Z,94590.75
2023-01-05T01:59:15.190Z,94588.88
2023-01-05T02:01:41.983Z,94571.88
2023-01-05T02:04:10.078Z,94582.03
2023-01-05T02:06:37.969Z,94573.00
2023-01-05T02:09:06.800Z,94563.59
2023-01-05T02:11:50.558Z,94557.94
2023-01-05T02:14:17.267Z,94561.41
2023-01-05T02:17:10.685Z,94548.75
2023-01-05T02:19:43.497Z,94546.78
2023-01-05T02:22:19.144Z,94537.66
2023-01-05T02:25:23.086Z,94532.66
2023-01-05T02:28:18.197Z,94528.88
2023-01-05T02:31:04.444Z,94551.84
2023-01-05T02:33:55.177Z,94530.13
2023-01-05T02:36:40.502Z,94538.94
2023-01-05T02:39:10.962Z,94524.78
2023-01-05T02:41:47.514Z,94523.84
2023-01-05T02:44:17.672Z,94532.34
2023-01-05T02:47:00.151Z,94530.63
2023-01-05T02:49:28.903Z,94533.94
2023-01-05T02:52:00.054Z,94524.81
2023-01-05T02:54:34.254Z,94517.13
2023-01-05T02:57:14.301Z,94520.75
2023-01-05T02:59:46.250Z,94524.53
2023-01-05T03:02:22.665Z,94529.88
2023-01-05T03:04:58.742Z,94540.13
2023-01-05T03:07:29.286Z,94527.38
2023-01-05T03:09:56.209Z,94515.88
2023-01-05T03:12:51.102Z,94524.38
2023-01-05T03:15:30.868Z,94504.84
2023-01-05T03:18:04.698Z,94503.25
2023-01-05T03:20:34.353Z,94494.91
2023-01-05T03:23:23.695Z,94491.44
2023-01-05T03:26:11.293Z,94503.72
2023-01-05T03:29:01.368Z,94506.88
2023-01-05T03:32:01.582Z,94498.38
2023-01-05T03:35:08.760Z,94510.34
2023-01-05T03:37:50.940Z,94518.69
2023-01-05T03:40:33.295Z,94512.41
2023-01-05T03:43:01.287Z,94523.13
2023-01-05T03:45:35.437Z,94520.28
2023-01-05T03:48:02.770Z,94515.88
2023-01-05T03:50:30.026Z,94516.66
2023-01-05T03:52:57.920Z,94521.06
2023-01-05T03:55:29.624Z,94507.19
2023-01-05T03:57:56.473Z,94503.44
2023-01-05T04:00:25.206Z,94506.72
2023-01-05T04:02:59.881Z,94517.13
2023-01-05T04:05:26.793Z,94512.56
2023-01-05T04:07:54.308Z,94506.25
2023-01-05T04:10:21.337Z,94515.72
2023-01-05T04:12:49.388Z,94507.84
2023-01-05T04:15:18.028Z,94513.50
2023-01-05T04:17:45.654Z,94509.09
2023-01-05T04:20:13.099Z,94495.72
2023-01-05T04:22:40.610Z,94498.88
2023-01-05T04:25:08.889Z,94508.78
2023-01-05T04:27:35.663Z,94496.81
2023-01-05T04:30:05.083Z,94493.50
2023-01-05T04:32:33.283Z,94495.88
2023-01-05T04:35:03.871Z,94502.16
2023-01-05T04:37:35.433Z,94494.13
2023-01-05T04:40:03.368Z,94501.22
2023-01-05T04:42:31.674Z,94496.97
2023-01-05T04:44:58.322Z,94486.59
2023-01-05T04:47:25.379Z,94493.34
2023-01-05T04:49:51.986Z,94498.88
2023-01-05T04:52:19.358Z,94492.72
2023-01-05T04:54:46.232Z,94501.06
2023-01-05T04:57:13.895Z,94485.63
2023-01-05T04:59:40.544Z,94490.34
2023-01-05T05:02:09.283Z,94505.63
2023-01-05T05:04:36.007Z,94499.66
2023-01-05T05:07:04.152Z,94490.34
2023-01-05T05:09:32.539Z,94502.16
2023-01-05T05:11:59.998Z,94496.03
2023-01-05T05:14:27.617Z,94488.31
2023-01-05T05:16:58.138Z,94499.97
2023-01-05T05:19:24.830Z,94489.09
2023-01-05T05:21:51.609Z,94482.66
2023-01-05T05:24:18.573Z,94483.44
2023-01-05T05:26:46.515Z,94481.22
2023-01-05T05:29:13.251Z,94487.38
2023-01-05T05:31:40.017Z,94497.13
2023-01-05T05:34:06.885Z,94480.59
2023-01-05T05:36:33.585Z,94514.13
2023-01-05T05:39:00.253Z,94519.31
2023-01-05T05:41:26.883Z,94506.41
2023-01-05T05:43:53.613Z,94516.97
2023-01-05T05:46:20.264Z,94520.75
2023-01-05T05:48:46.955Z,94501.69
2023-01-05T05:51:13.581Z,94521.84
2023-01-05T05:53:40.288Z,94541.50
2023-01-05T05:56:07.303Z,94536.16
2023-01-05T05:58:33.907Z,94537.72
2023-01-05T06:01:00.641Z,94540.88
2023-01-05T06:03:27.410Z,94545.75
2023-01-05T06:05:54.211Z,94530.97
2023-01-05T06:08:21.928Z,94534.59
2023-01-05T06:10:49.391Z,94540.72
2023-01-05T06:13:16.980Z,94550.03
2023-01-05T06:15:43.957Z,94550.03
2023-01-05T06:18:10.563Z,94561.50
2023-01-05T06:20:37.324Z,94578.50
2023-01-05T06:23:04.418Z,94566.53
2023-01-05T06:25:31.273Z,94577.06
2023-01-05T06:27:58.038Z,94582.28
2023-01-05T06:30:25.887Z,94569.19
2023-01-05T06:32:52.527Z,94583.03
2023-01-05T06:35:19.190Z,94582.09
2023-01-05T06:37:45.937Z,94586.50
2023-01-05T06:40:13.469Z,94594.81
2023-01-05T06:42:40.780Z,94602.22
2023-01-05T06:45:09.683Z,94616.22
2023-01-05T06:47:36.304Z,94618.25
2023-01-05T06:50:02.937Z,94629.72
2023-01-05T06:52:29.593Z,94627.84
2023-01-05T06:54:56.228Z,94638.47
2023-01-05T06:57:23.011Z,94631.47
2023-01-05T06:59:49.631Z,94642.63
2023-01-05T07:02:17.712Z,94638.81
2023-01-05T07:04:44.425Z,94652.75
2023-01-05T07:07:15.696Z,94639.63
2023-01-05T07:09:42.694Z,94651.53
2023-01-05T07:12:09.344Z,94647.72
2023-01-05T07:14:36.073Z,94652.09
2023-01-05T07:17:02.750Z,94654.09
2023-01-05T07:19:29.442Z,94653.59
2023-01-05T07:21:57.051Z,94674.47
2023-01-05T07:24:24.510Z,94673.03
2023-01-05T07:26:51.171Z,94675.50
2023-01-05T07:29:17.904Z,94679.94
2023-01-05T07:31:44.566Z,94681.34
2023-01-05T07:34:11.355Z,94692.31
2023-01-05T07:36:38.023Z,94700.63
2023-01-05T07:39:04.752Z,94699.53
2023-01-05T07:41:31.366Z,94697.19
2023-01-05T07:43:58.052Z,94698.88
2023-01-05T07:46:24.779Z,94704.78
2023-01-05T07:48:51.489Z,94707.47
2023-01-05T07:51:18.366Z,94710.25
2023-01-05T07:53:45.040Z,94714.00
2023-01-05T07:56:12.909Z,94715.97
2023-01-05T07:58:39.969Z,94720.31
2023-01-05T08:01:12.141Z,94719.53
2023-01-05T08:03:39.164Z,94717.34
2023-01-05T08:06:08.635Z,94711.22
2023-01-05T08:08:35.360Z,94720.81
2023-01-05T08:11:09.669Z,94722.69
2023-01-05T08:13:55.521Z,94697.56
2023-01-05T08:16:23.088Z,94713.50
2023-01-05T08:18:49.885Z,94698.25
2023-01-05T08:21:16.693Z,94720.59
2023-01-05T08:23:43.405Z,94723.59
2023-01-05T08:26:16.094Z,94724.25
2023-01-05T08:28:43.647Z,94731.00
2023-01-05T08:31:16.484Z,94739.19
2023-01-05T08:33:43.822Z,94745.78
2023-01-05T08:36:13.466Z,94747.56
2023-01-05T08:38:48.078Z,94749.94
2023-01-05T08:41:16.980Z,94760.63
2023-01-05T08:43:44.235Z,94756.56
2023-01-05T08:46:10.939Z,94758.44
2023-01-05T08:48:38.060Z,94754.19
2023-01-05T08:51:07.231Z,94757.66
2023-01-05T08:53:34.996Z,94759.72
2023-01-05T08:56:02.498Z,94772.50
2023-01-05T08:58:29.214Z,94770.41
2023-01-05T09:00:55.882Z,94780.22
2023-01-05T09:03:22.865Z,94771.09
2023-01-05T09:05:53.059Z,94777.22
2023-01-05T09:08:19.718Z,94782.56
2023-01-05T09:10:46.354Z,94779.59
2023-01-05T09:13:13.055Z,94783.53
2023-01-05T09:15:39.693Z,94779.16
2023-01-05T09:18:06.350Z,94781.53
2023-01-05T09:20:39.416Z,94780.44
2023-01-05T09:23:06.647Z,94792.13
2023-01-05T09:25:33.268Z,94791.81
2023-01-05T09:27:59.951Z,94802.41
2023-01-05T09:30:26.610Z,94802.09
2023-01-05T09:32:53.371Z,94812.47
2023-01-05T09:35:20.034Z,94826.16
2023-01-05T09:37:46.692Z,94820.50
2023-01-05T09:40:13.778Z,94827.75
2023-01-05T09:42:45.296Z,94830.09
2023-01-05T09:45:16.502Z,94831.31
2023-01-05T09:47:46.740Z,94829.25
2023-01-05T09:50:20.469Z,94833.31
2023-01-05T09:52:49.587Z,94834.09
2023-01-05T09:55:18.535Z,94827.34
2023-01-05T09:57:55.219Z,94831.91
2023-01-05T10:00:24.186Z,94833.69
2023-01-05T10:02:55.904Z,94838.31
2023-01-05T10:05:23.956Z,94837.50
2023-01-05T10:08:00.765Z,94839.47
2023-01-05T10:10:43.746Z,94844.72
2023-01-05T10:13:25.049Z,94850.13
2023-01-05T10:15:54.705Z,94845.38
2023-01-05T10:18:25.550Z,94842.41
2023-01-05T10:21:21.068Z,94846.34
2023-01-05T10:24:06.504Z,94844.47
2023-01-05T10:27:22.990Z,94842.22
2023-01-05T10:29:43.938Z,94832.94
2023-01-05T10:32:22.910Z,94840.28
2023-01-05T10:35:00.441Z,94833.34
2023-01-05T10:37:48.267Z,94842.56
2023-01-05T10:40:25.601Z,94839.09
2023-01-05T10:43:12.928Z,94841.88
2023-01-05T10:46:03.149Z,94835.13
2023-01-05T10:48:31.996Z,94828.22
2023-01-05T10:50:58.863Z,94825.53
2023-01-05T10:53:28.103Z,94827.91
2023-01-05T10:56:05.370Z,94836.13
2023-01-05T10:58:33.510Z,94829.56
2023-01-05T11:01:06.485Z,94827.09
2023-01-05T11:04:26.601Z,94831.53
2023-01-05T11:06:32.712Z,94825.84
2023-01-05T11:09:22.340Z,94836.25
2023-01-05T11:12:01.147Z,94842.03
2023-01-05T11:14:32.797Z,94832.94
2023-01-05T11:17:08.042Z,94820.22
2023-01-05T11:19:41.318Z,94813.13
2023-01-05T11:22:35.601Z,94827.75
2023-01-05T11:25:17.207Z,94834.00
2023-01-05T11:27:43.927Z,94832.19
2023-01-05T11:30:16.540Z,94828.91
2023-01-05T11:32:44.890Z,94824.97
2023-01-05T11:35:28.601Z,94825.66
2023-01-05T11:37:55.303Z,94819.41
2023-01-05T11:40:27.528Z,94816.44
2023-01-05T11:42:54.247Z,94817.53
2023-01-05T11:45:28.616Z,94820.69
2023-01-05T11:48:07.020Z,94818.31
2023-01-05T11:50:49.242Z,94818.22
2023-01-05T11:53:34.375Z,94823.72
2023-01-05T11:56:05.115Z,94817.09
2023-01-05T11:58:34.686Z,94808.28
2023-01-05T12:01:01.252Z,94812.53
2023-01-05T12:04:06.523Z,94816.19
2023-01-05T12:06:48.255Z,94811.91
2023-01-05T12:09:26.434Z,94815.38
2023-01-05T12:11:55.101Z,94806.94
2023-01-05T12:14:41.556Z,94804.75
2023-01-05T12:17:14.699Z,94799.28
2023-01-05T12:19:55.855Z,94797.09
2023-01-05T12:22:40.831Z,94802.13
2023-01-05T12:25:48.917Z,94795.84
2023-01-05T12:28:40.525Z,94804.97
2023-01-05T12:34:42.208Z,94802.47
2023-01-05T12:37:29.131Z,94806.06
2023-01-05T12:40:24.037Z,94814.88
2023-01-05T12:43:07.878Z,94814.53
2023-01-05T12:45:53.394Z,94814.78
2023-01-05T12:48:30.546Z,94826.88
2023-01-05T12:51:14.794Z,94829.66
2023-01-05T12:53:47.491Z,94834.25
2023-01-05T12:56:48.067Z,94828.41
2023-01-05T12:59:33.843Z,94837.53
2023-01-05T13:02:10.246Z,94834.84
2023-01-05T13:04:48.604Z,94837.22
2023-01-05T13:07:22.180Z,94843.97
2023-01-05T13:10:02.339Z,94833.88
2023-01-05T13:12:33.944Z,94834.47
2023-01-05T13:15:14.007Z,94839.91
2023-01-05T13:17:48.211Z,94837.72
2023-01-05T13:20:30.177Z,94831.09
2023-01-05T13:23:04.389Z,94831.31
2023-01-05T13:25:38.829Z,94837.72
2023-01-05T13:30:47.453Z,94819.41
2023-01-05T13:33:39.577Z,94838.53
2023-01-05T13:36:25.162Z,94835.56
2023-01-05T13:39:05.447Z,94834.47
2023-01-05T13:42:04.506Z,94841.72
2023-01-05T13:44:43.253Z,94846.06
2023-01-05T13:47:12.962Z,94853.72
2023-01-05T13:50:01.350Z,94843.31
2023-01-05T13:52:49.360Z,94851.44
2023-01-05T13:55:25.816Z,94856.31
2023-01-05T13:57:55.690Z,94856.91
2023-01-05T14:00:28.497Z,94862.56
2023-01-05T14:03:01.056Z,94861.16
2023-01-05T14:05:34.584Z,94854.44
2023-01-05T14:08:05.642Z,94858.50
2023-01-05T14:10:34.153Z,94860.06
2023-01-05T14:13:01.834Z,94863.63
2023-01-05T14:15:36.454Z,94866.31
2023-01-05T14:18:08.093Z,94878.59
2023-01-05T14:20:43.198Z,94875.44
2023-01-05T14:23:30.130Z,94879.28
2023-01-05T14:26:00.835Z,94876.75
2023-01-05T14:28:30.599Z,94878.13
2023-01-05T14:31:16.710Z,94885.06
2023-01-05T14:33:50.807Z,94877.34
2023-01-05T14:36:23.546Z,94884.56
2023-01-05T14:38:50.538Z,94887.03
2023-01-05T14:41:27.474Z,94885.66
2023-01-05T14:44:19.662Z,94894.47
2023-01-05T14:46:54.260Z,94899.31
2023-01-05T14:49:42.414Z,94893.19
2023-01-05T14:52:53.960Z,94894.28
2023-01-05T14:55:37.229Z,94893.78
2023-01-05T14:58:35.274Z,94898.13
2023-01-05T15:01:17.196Z,94901.00
2023-01-05T15:04:13.690Z,94902.09
2023-01-05T15:07:15.854Z,94895.66
2023-01-05T15:10:10.649Z,94895.34
2023-01-05T15:12:44.942Z,94893.78
2023-01-05T15:15:40.870Z,94895.34
2023-01-05T15:18:53.508Z,94899.03
2023-01-05T15:21:38.791Z,94904.56
2023-01-05T15:24:23.728Z,94900.00
2023-01-05T15:27:00.780Z,94902.69
2023-01-05T15:29:36.393Z,94902.69
2023-01-05T15:32:12.643Z,94905.44
2023-01-05T15:34:44.880Z,94907.53
2023-01-05T15:37:14.275Z,94908.81
2023-01-05T15:39:51.698Z,94905.34
2023-01-05T15:42:41.569Z,94910.22
2023-01-05T15:45:35.141Z,94907.22
2023-01-05T15:48:18.749Z,94904.25
2023-01-05T15:50:51.196Z,94909.59
2023-01-05T15:53:24.199Z,94911.19
2023-01-05T15:55:52.103Z,94918.72
2023-01-05T15:58:20.277Z,94917.63
2023-01-05T16:01:00.480Z,94924.56
2023-01-05T16:03:30.287Z,94915.16
2023-01-05T16:05:59.350Z,94918.13
2023-01-05T16:08:27.111Z,94917.34
2023-01-05T16:10:59.593Z,94922.38
2023-01-05T16:13:38.105Z,94929.59
2023-01-05T16:16:24.890Z,94927.72
2023-01-05T16:19:09.958Z,94927.41
2023-01-05T16:21:43.193Z,94925.06
2023-01-05T16:24:44.498Z,94940.31
2023-01-05T16:27:12.918Z,94941.56
2023-01-05T16:29:45.548Z,94939.69
2023-01-05T16:32:54.983Z,94943.13
2023-01-05T16:35:36.080Z,94943.75
2023-01-05T16:38:04.153Z,94931.97
2023-01-05T16:40:31.236Z,94932.75
2023-01-05T16:42:57.986Z,94936.84
2023-01-05T16:45:27.061Z,94936.22
2023-01-05T16:47:53.849Z,94935.41
2023-01-05T16:50:20.409Z,94936.84
2023-01-05T16:52:54.433Z,94936.84
2023-01-05T16:55:35.847Z,94943.25
2023-01-05T16:58:05.746Z,94939.59
2023-01-05T17:00:34.576Z,94945.44
2023-01-05T17:03:04.445Z,94940.09
2023-01-05T17:05:34.840Z,94945.16
2023-01-05T17:08:18.627Z,94949.41
2023-01-05T17:10:45.624Z,94945.44
2023-01-05T17:13:20.763Z,94951.38
2023-01-05T17:15:49.457Z,94941.47
2023-01-05T17:18:18.721Z,94951.38
2023-01-05T17:20:46.003Z,94949.59
2023-01-05T17:23:20.477Z,94957.13
2023-01-05T17:25:47.558Z,94954.53
2023-01-05T17:30:46.172Z,94957.03
2023-01-05T17:33:12.845Z,94955.44
2023-01-05T17:35:39.830Z,94953.06
2023-01-05T17:38:06.716Z,94953.88
2023-01-05T17:40:33.496Z,94950.09
2023-01-05T17:43:00.168Z,94955.16
2023-01-05T17:45:27.507Z,94955.16
2023-01-05T17:47:54.701Z,94953.06
2023-01-05T17:53:04.409Z,94953.94
2023-01-05T17:55:31.744Z,94941.69
2023-01-05T17:57:59.188Z,94946.53
2023-01-05T18:00:27.750Z,94942.78
2023-01-05T18:02:55.461Z,94954.53
2023-01-05T18:05:22.886Z,94950.78
2023-01-05T18:07:50.219Z,94938.50
2023-01-05T18:10:20.480Z,94938.91
2023-01-05T18:12:47.753Z,94943.94
2023-01-05T18:15:15.220Z,94949.00
2023-01-05T18:17:42.630Z,94941.88
2023-01-05T18:20:12.566Z,94943.16
2023-01-05T18:22:39.219Z,94948.19
2023-01-05T18:27:38.109Z,94934.34
2023-01-05T18:30:06.486Z,94928.13
2023-01-05T18:32:33.313Z,94937.50
2023-01-05T18:35:02.977Z,94923.66
2023-01-05T18:37:32.891Z,94928.03
2023-01-05T18:39:59.567Z,94938.72
2023-01-05T18:42:26.685Z,94927.84
2023-01-05T18:44:53.351Z,94937.72
2023-01-05T18:47:20.109Z,94934.06
2023-01-05T18:49:46.786Z,94931.97
2023-01-05T18:52:13.522Z,94924.53
2023-01-05T18:54:40.265Z,94934.72
2023-01-05T18:57:06.915Z,94930.78
2023-01-05T18:59:33.684Z,94932.47
2023-01-05T19:02:00.409Z,94932.75
2023-01-05T19:04:27.709Z,94927.50
2023-01-05T19:06:54.473Z,94924.84
2023-01-05T19:09:21.098Z,94927.28
2023-01-05T19:11:48.483Z,94929.75
2023-01-05T19:14:16.126Z,94929.53
2023-01-05T19:16:42.773Z,94930.63
2023-01-05T19:19:12.263Z,94933.31
2023-01-05T19:21:42.500Z,94931.72
2023-01-05T19:24:17.979Z,94928.28
2023-01-05T19:26:46.269Z,94929.38
2023-01-05T19:29:13.953Z,94928.56
2023-01-05T19:31:41.459Z,94930.75
2023-01-05T19:34:08.194Z,94934.28
2023-01-05T19:36:36.448Z,94933.28
2023-01-05T19:39:10.314Z,94927.66
2023-01-05T19:41:39.263Z,94933.28
2023-01-05T19:44:06.300Z,94937.59
2023-01-05T19:46:35.572Z,94934.44
2023-01-05T19:49:02.969Z,94933.34
2023-01-05T19:51:30.311Z,94928.31
2023-01-05T19:54:01.439Z,94934.44
2023-01-05T19:56:30.859Z,94929.41
2023-01-05T19:59:00.845Z,94935.00
2023-01-05T20:01:29.811Z,94928.13
2023-01-05T20:03:57.216Z,94936.31
2023-01-05T20:06:32.550Z,94933.66
2023-01-05T20:09:01.255Z,94934.94
2023-01-05T20:11:36.324Z,94938.41
2023-01-05T20:14:24.638Z,94938.13
2023-01-05T20:16:53.873Z,94936.44
2023-01-05T20:19:21.717Z,94936.16
2023-01-05T20:21:49.676Z,94929.94
2023-01-05T20:24:18.781Z,94933.13
2023-01-05T20:26:46.664Z,94934.69
2023-01-05T20:29:15.185Z,94935.78
2023-01-05T20:31:49.245Z,94942.22
2023-01-05T20:34:19.182Z,94942.22
2023-01-05T20:36:45.906Z,94940.03
2023-01-05T20:39:16.075Z,94947.16
2023-01-05T20:41:46.332Z,94938.84
2023-01-05T20:44:14.435Z,94943.59
2023-01-05T20:46:45.182Z,94939.34
2023-01-05T20:49:11.926Z,94945.47
2023-01-05T20:51:39.346Z,94951.31
2023-01-05T20:54:09.536Z,94949.94
2023-01-05T20:56:38.829Z,94945.69
2023-01-05T20:59:08.329Z,94947.78
2023-01-05T21:01:36.185Z,94942.16
2023-01-05T21:04:04.340Z,94946.09
2023-01-05T21:06:30.997Z,94945.59
2023-01-05T21:08:57.856Z,94940.84
2023-01-05T21:11:26.148Z,94940.34
2023-01-05T21:13:55.086Z,94940.84
2023-01-05T21:16:28.094Z,94944.09
2023-01-05T21:18:55.296Z,94944.69
2023-01-05T21:21:23.776Z,94938.84
2023-01-05T21:23:52.341Z,94938.84
2023-01-05T21:26:20.522Z,94942.31
2023-01-05T21:28:49.220Z,94938.06
2023-01-05T21:31:18.900Z,94933.81
2023-01-05T21:33:46.760Z,94936.47
2023-01-05T21:36:25.559Z,94940.50
2023-01-05T21:39:00.935Z,94933.13
2023-01-05T21:41:49.031Z,94926.19
2023-01-05T21:44:16.243Z,94922.44
2023-01-05T21:46:43.573Z,94924.50
2023-01-05T21:49:11.202Z,94928.28
2023-01-05T21:51:56.486Z,94922.44
2023-01-05T21:54:42.336Z,94927.00
2023-01-05T21:57:09.128Z,94917.59
2023-01-05T21:59:35.945Z,94914.94
2023-01-05T22:02:03.461Z,94913.75
2023-01-05T22:04:30.270Z,94913.16
2023-01-05T22:06:57.406Z,94913.66
2023-01-05T22:09:24.249Z,94919.00
2023-01-05T22:11:51.054Z,94907.72
2023-01-05T22:14:17.823Z,94902.91
2023-01-05T22:16:44.650Z,94898.06
2023-01-05T22:19:11.654Z,94891.41
2023-01-05T22:21:38.568Z,94891.72
2023-01-05T22:24:06.005Z,94887.16
2023-01-05T22:26:32.990Z,94884.28
2023-01-05T22:28:59.979Z,94889.63
2023-01-05T22:31:28.721Z,94896.63
2023-01-05T22:33:57.910Z,94887.84
2023-01-05T22:36:26.296Z,94892.19
2023-01-05T22:38:54.433Z,94885.06
2023-01-05T22:41:26.890Z,94896.84
2023-01-05T22:43:53.760Z,94895.53
2023-01-05T22:46:23.326Z,94892.66
2023-01-05T22:48:52.259Z,94893.34
2023-01-05T22:51:22.390Z,94893.91
2023-01-05T22:53:50.043Z,94888.97
2023-01-05T22:56:18.802Z,94890.56
2023-01-05T22:58:45.876Z,94898.06
2023-01-05T23:01:28.618Z,94896.56
2023-01-05T23:03:57.009Z,94898.50
2023-01-05T23:06:24.240Z,94896.75
2023-01-05T23:08:52.125Z,94893.56
2023-01-05T23:11:25.900Z,94888.31
2023-01-05T23:13:53.485Z,94893.94
2023-01-05T23:16:21.063Z,94898.94
2023-01-05T23:18:49.782Z,94894.19
2023-01-05T23:21:17.815Z,94885.28
2023-01-05T23:23:44.532Z,94875.97
2023-01-05T23:26:13.143Z,94879.44
2023-01-05T23:28:40.489Z,94881.59
2023-01-05T23:31:07.545Z,94878.44
2023-01-05T23:33:36.561Z,94880.03
2023-01-05T23:36:04.497Z,94874.97
2023-01-05T23:38:31.965Z,94881.31
2023-01-05T23:40:59.009Z,94870.34
2023-01-05T23:43:28.273Z,94872.41
2023-01-05T23:46:04.689Z,94868.97
2023-01-05T23:48:31.910Z,94870.53
2023-01-05T23:50:58.570Z,94864.41
2023-01-05T23:53:26.392Z,94859.28
2023-01-05T23:56:03.909Z,94865.41
2023-01-05T23:58:30.677Z,94856.91
